createdAt,value
2019-05-02T00:00:01.878Z,9.47
2019-05-02T00:01:01.163Z,9.45
2019-05-02T00:02:01.133Z,9.44
2019-05-02T00:03:04.391Z,9.36
2019-05-02T00:04:01.089Z,9.42
2019-05-02T00:05:01.484Z,9.42
2019-05-02T00:06:02.878Z,9.47
2019-05-02T00:07:01.026Z,9.45
2019-05-02T00:08:01.038Z,9.42
2019-05-02T00:09:04.060Z,9.40
2019-05-02T00:10:00.978Z,9.45
2019-05-02T00:11:00.945Z,9.45
2019-05-02T00:12:00.921Z,9.42
2019-05-02T00:13:01.006Z,9.26
2019-05-02T00:14:00.881Z,9.27
2019-05-02T00:15:02.124Z,9.33
2019-05-02T00:16:01.088Z,9.33
2019-05-02T00:17:00.922Z,9.30
2019-05-02T00:19:00.777Z,9.26
2019-05-02T00:20:00.878Z,9.24
2019-05-02T00:21:01.372Z,9.30
2019-05-02T00:22:00.711Z,9.24
2019-05-02T00:23:00.988Z,9.26
2019-05-02T00:24:03.023Z,9.33
2019-05-02T00:25:00.746Z,9.27
2019-05-02T00:26:00.637Z,9.30
2019-05-02T00:27:01.279Z,9.27
2019-05-02T00:28:00.585Z,9.26
2019-05-02T00:29:00.868Z,9.29
2019-05-02T00:30:00.535Z,9.24
2019-05-02T00:31:00.521Z,9.30
2019-05-02T00:32:00.490Z,9.30
2019-05-02T00:34:00.452Z,9.30
2019-05-02T00:35:00.730Z,9.30
2019-05-02T00:36:00.407Z,9.26
2019-05-02T00:37:00.385Z,9.30
2019-05-02T00:38:02.440Z,9.30
2019-05-02T00:39:00.386Z,9.27
2019-05-02T00:40:00.318Z,9.30
2019-05-02T00:41:02.256Z,9.36
2019-05-02T00:42:12.053Z,9.27
2019-05-02T00:43:00.253Z,9.23
2019-05-02T00:44:00.244Z,9.23
2019-05-02T00:45:00.318Z,9.24
2019-05-02T00:46:00.969Z,9.23
2019-05-02T00:47:00.470Z,9.27
2019-05-02T00:48:00.145Z,9.24
2019-05-02T00:49:01.888Z,9.19
2019-05-02T00:50:00.105Z,9.22
2019-05-02T00:52:01.414Z,9.32
2019-05-02T00:53:00.294Z,9.34
2019-05-02T00:54:00.028Z,9.29
2019-05-02T00:54:59.998Z,9.30
2019-05-02T00:55:59.974Z,9.24
2019-05-02T00:56:59.973Z,9.24
2019-05-02T00:57:59.932Z,9.29
2019-05-02T00:59:02.404Z,9.32
2019-05-02T00:59:59.890Z,9.24
2019-05-02T01:00:59.976Z,9.32
2019-05-02T01:02:04.810Z,9.29
2019-05-02T01:02:59.832Z,9.29
2019-05-02T01:03:59.803Z,9.37
2019-05-02T01:05:03.252Z,9.26
2019-05-02T01:06:00.012Z,9.29
2019-05-02T01:06:59.740Z,9.30
2019-05-02T01:08:01.017Z,9.23
2019-05-02T01:08:59.721Z,9.12
2019-05-02T01:09:59.824Z,9.23
2019-05-02T01:10:59.759Z,9.27
2019-05-02T01:12:03.193Z,9.26
2019-05-02T01:12:59.617Z,9.26
2019-05-02T01:13:59.594Z,9.24
2019-05-02T01:15:03.371Z,9.32
2019-05-02T01:15:59.695Z,9.27
2019-05-02T01:16:59.527Z,9.32
2019-05-02T01:18:01.084Z,9.27
2019-05-02T01:18:59.793Z,9.32
2019-05-02T01:19:59.460Z,9.32
2019-05-02T01:21:02.709Z,9.29
2019-05-02T01:21:59.415Z,9.32
2019-05-02T01:22:59.510Z,9.32
2019-05-02T01:24:03.144Z,9.19
2019-05-02T01:24:59.350Z,9.24
2019-05-02T01:25:59.638Z,9.23
2019-05-02T01:26:59.800Z,9.23
2019-05-02T01:27:59.399Z,9.26
2019-05-02T01:28:59.264Z,9.24
2019-05-02T01:30:01.542Z,9.29
2019-05-02T01:30:59.424Z,9.29
2019-05-02T01:33:01.473Z,9.27
2019-05-02T01:33:59.462Z,9.23
2019-05-02T01:34:59.135Z,9.15
2019-05-02T01:36:59.110Z,9.23
2019-05-02T01:39:02.934Z,9.14
2019-05-02T01:39:59.189Z,9.09
2019-05-02T01:40:59.257Z,9.11
2019-05-02T01:41:59.882Z,9.15
2019-05-02T01:44:00.073Z,9.19
2019-05-02T01:44:58.921Z,9.22
2019-05-02T01:45:59.107Z,9.18
2019-05-02T01:47:00.054Z,9.11
2019-05-02T01:47:59.158Z,9.16
2019-05-02T01:48:58.850Z,9.24
2019-05-02T01:49:59.260Z,9.22
2019-05-02T01:50:58.802Z,9.22
2019-05-02T01:52:00.022Z,9.14
2019-05-02T01:53:00.202Z,9.15
2019-05-02T01:53:59.029Z,9.14
2019-05-02T01:54:58.767Z,9.15
2019-05-02T01:55:59.352Z,9.14
2019-05-02T01:56:58.781Z,9.04
2019-05-02T01:57:58.640Z,9.12
2019-05-02T01:58:58.941Z,9.14
2019-05-02T01:59:58.856Z,9.18
2019-05-02T02:00:58.577Z,9.11
2019-05-02T02:01:59.185Z,9.09
2019-05-02T02:02:58.538Z,9.15
2019-05-02T02:03:58.522Z,9.14
2019-05-02T02:04:58.496Z,9.11
2019-05-02T02:06:02.826Z,9.09
2019-05-02T02:06:58.454Z,9.12
2019-05-02T02:07:58.433Z,9.06
2019-05-02T02:08:58.407Z,9.09
2019-05-02T02:09:58.388Z,9.19
2019-05-02T02:10:58.442Z,9.22
2019-05-02T02:11:58.646Z,9.15
2019-05-02T02:13:04.618Z,9.11
2019-05-02T02:13:58.306Z,9.09
2019-05-02T02:14:58.290Z,9.06
2019-05-02T02:16:00.265Z,9.06
2019-05-02T02:16:58.288Z,9.14
2019-05-02T02:17:58.554Z,9.15
2019-05-02T02:18:59.129Z,9.08
2019-05-02T02:19:58.173Z,9.15
2019-05-02T02:20:58.160Z,9.14
2019-05-02T02:22:02.938Z,9.08
2019-05-02T02:22:58.112Z,9.11
2019-05-02T02:23:58.333Z,9.12
2019-05-02T02:25:00.959Z,9.11
2019-05-02T02:25:58.066Z,9.09
2019-05-02T02:26:58.045Z,9.14
2019-05-02T02:27:59.678Z,9.12
2019-05-02T02:28:58.322Z,9.14
2019-05-02T02:29:58.017Z,9.11
2019-05-02T02:31:04.925Z,9.14
2019-05-02T02:31:57.910Z,9.12
2019-05-02T02:33:00.572Z,9.14
2019-05-02T02:33:57.878Z,9.09
2019-05-02T02:35:57.827Z,9.18
2019-05-02T02:36:57.807Z,9.12
2019-05-02T02:38:57.776Z,9.09
2019-05-02T02:39:57.747Z,9.14
2019-05-02T02:41:57.702Z,9.09
2019-05-02T02:42:57.834Z,9.11
2019-05-02T02:44:00.557Z,9.08
2019-05-02T02:44:57.937Z,9.16
2019-05-02T02:45:59.740Z,9.11
2019-05-02T02:46:57.593Z,9.15
2019-05-02T02:48:00.036Z,9.09
2019-05-02T02:48:57.555Z,9.23
2019-05-02T02:50:02.280Z,9.12
2019-05-02T02:50:57.519Z,9.19
2019-05-02T02:52:04.258Z,9.14
2019-05-02T02:52:57.460Z,9.15
2019-05-02T02:54:03.896Z,9.14
2019-05-02T02:54:57.616Z,9.11
2019-05-02T02:56:57.386Z,9.15
2019-05-02T02:57:58.322Z,9.16
2019-05-02T02:58:57.630Z,9.18
2019-05-02T03:00:06.667Z,9.12
2019-05-02T03:00:57.287Z,9.12
2019-05-02T03:02:09.161Z,9.15
2019-05-02T03:02:57.251Z,9.09
2019-05-02T03:04:01.881Z,9.16
2019-05-02T03:04:57.201Z,9.12
2019-05-02T03:06:57.160Z,9.14
2019-05-02T03:07:59.723Z,9.12
2019-05-02T03:08:57.111Z,9.11
2019-05-02T03:09:59.782Z,9.11
2019-05-02T03:12:02.082Z,9.14
2019-05-02T03:12:57.326Z,9.11
2019-05-02T03:14:06.073Z,9.12
2019-05-02T03:14:56.983Z,9.12
2019-05-02T03:16:00.344Z,9.19
2019-05-02T03:16:57.005Z,9.19
2019-05-02T03:17:59.871Z,9.15
2019-05-02T03:18:57.178Z,9.12
2019-05-02T03:20:01.577Z,9.16
2019-05-02T03:20:56.894Z,9.22
2019-05-02T03:22:04.323Z,9.14
2019-05-02T03:22:56.820Z,9.14
2019-05-02T03:24:03.304Z,9.12
2019-05-02T03:24:56.774Z,9.16
2019-05-02T03:25:56.749Z,9.11
2019-05-02T03:26:58.397Z,9.14
2019-05-02T03:27:56.702Z,9.09
2019-05-02T03:28:58.679Z,9.22
2019-05-02T03:29:56.661Z,9.26
2019-05-02T03:30:56.952Z,9.22
2019-05-02T03:32:11.481Z,9.14
2019-05-02T03:33:05.849Z,9.16
2019-05-02T03:34:00.490Z,9.09
2019-05-02T03:34:56.757Z,9.12
2019-05-02T03:35:56.534Z,9.12
2019-05-02T03:37:03.175Z,9.12
2019-05-02T03:37:56.516Z,9.26
2019-05-02T03:38:56.487Z,9.16
2019-05-02T03:39:58.338Z,9.16
2019-05-02T03:40:56.434Z,9.23
2019-05-02T03:42:02.852Z,9.22
2019-05-02T03:42:56.692Z,9.23
2019-05-02T03:44:10.662Z,9.23
2019-05-02T03:45:03.852Z,9.32
2019-05-02T03:45:56.319Z,9.26
2019-05-02T03:47:02.033Z,9.32
2019-05-02T03:47:56.276Z,9.34
2019-05-02T03:49:06.231Z,9.19
2019-05-02T03:50:56.409Z,9.33
2019-05-02T03:52:56.189Z,9.26
2019-05-02T03:54:05.660Z,9.30
2019-05-02T03:56:56.126Z,9.32
2019-05-02T03:57:56.057Z,9.41
2019-05-02T03:58:58.220Z,9.29
2019-05-02T03:59:56.031Z,9.45
2019-05-02T04:01:01.694Z,9.29
2019-05-02T04:01:56.025Z,9.34
2019-05-02T04:03:00.311Z,9.33
2019-05-02T04:03:56.023Z,9.40
2019-05-02T04:05:00.715Z,9.41
2019-05-02T04:05:55.883Z,9.37
2019-05-02T04:07:01.326Z,9.36
2019-05-02T04:07:55.844Z,9.44
2019-05-02T04:08:59.842Z,9.40
2019-05-02T04:09:56.098Z,9.40
2019-05-02T04:10:59.401Z,9.44
2019-05-02T04:11:55.787Z,9.44
2019-05-02T04:13:55.722Z,9.48
2019-05-02T04:14:57.180Z,9.48
2019-05-02T04:15:55.673Z,9.50
2019-05-02T04:16:57.368Z,9.55
2019-05-02T04:17:55.629Z,9.48
2019-05-02T04:18:58.037Z,9.51
2019-05-02T04:19:55.625Z,9.52
2019-05-02T04:20:55.563Z,9.55
2019-05-02T04:22:01.902Z,9.54
2019-05-02T04:22:55.564Z,9.54
2019-05-02T04:24:07.670Z,9.51
2019-05-02T04:24:56.774Z,9.54
2019-05-02T04:25:55.477Z,9.50
2019-05-02T04:26:56.563Z,9.48
2019-05-02T04:27:55.939Z,9.63
2019-05-02T04:28:55.510Z,9.59
2019-05-02T04:29:55.513Z,9.62
2019-05-02T04:30:55.760Z,9.57
2019-05-02T04:31:55.330Z,9.54
2019-05-02T04:32:56.166Z,9.59
2019-05-02T04:33:55.283Z,9.66
2019-05-02T04:34:57.998Z,9.57
2019-05-02T04:35:59.226Z,9.65
2019-05-02T04:37:03.503Z,9.65
2019-05-02T04:37:57.538Z,9.65
2019-05-02T04:39:59.126Z,9.62
2019-05-02T04:40:55.136Z,9.65
2019-05-02T04:41:55.126Z,9.75
2019-05-02T04:43:02.069Z,9.75
2019-05-02T04:43:58.032Z,9.67
2019-05-02T04:45:13.717Z,9.75
2019-05-02T04:45:57.463Z,9.77
2019-05-02T04:48:03.050Z,9.70
2019-05-02T04:48:54.976Z,9.72
2019-05-02T04:49:54.960Z,9.73
2019-05-02T04:51:02.059Z,9.77
2019-05-02T04:52:01.484Z,9.78
2019-05-02T04:52:54.890Z,9.78
2019-05-02T04:53:54.862Z,9.85
2019-05-02T04:55:08.201Z,9.87
2019-05-02T04:56:01.639Z,9.84
2019-05-02T04:56:55.447Z,9.80
2019-05-02T04:57:54.810Z,9.78
2019-05-02T04:58:54.756Z,9.83
2019-05-02T05:00:05.073Z,9.78
2019-05-02T05:01:01.016Z,9.83
2019-05-02T05:01:58.508Z,9.78
2019-05-02T05:02:54.680Z,9.81
2019-05-02T05:03:58.602Z,9.91
2019-05-02T05:06:01.604Z,9.88
2019-05-02T05:07:00.098Z,9.84
2019-05-02T05:08:54.846Z,9.85
2019-05-02T05:09:58.232Z,9.91
2019-05-02T05:10:54.512Z,9.90
2019-05-02T05:11:59.025Z,9.94
2019-05-02T05:12:54.474Z,9.91
2019-05-02T05:13:57.574Z,9.98
2019-05-02T05:14:55.083Z,10.03
2019-05-02T05:15:54.395Z,10.01
2019-05-02T05:16:56.116Z,9.98
2019-05-02T05:18:54.349Z,9.99
2019-05-02T05:19:54.418Z,10.08
2019-05-02T05:21:58.870Z,9.98
2019-05-02T05:22:54.345Z,10.06
2019-05-02T05:23:59.299Z,10.09
2019-05-02T05:24:54.272Z,10.10
2019-05-02T05:25:55.804Z,10.10
2019-05-02T05:26:54.192Z,10.10
2019-05-02T05:27:58.770Z,10.14
2019-05-02T05:28:54.463Z,10.08
2019-05-02T05:29:59.483Z,10.16
2019-05-02T05:30:54.166Z,10.23
2019-05-02T05:31:55.169Z,10.21
2019-05-02T05:32:54.055Z,10.18
2019-05-02T05:33:54.043Z,10.14
2019-05-02T05:34:54.680Z,10.21
2019-05-02T05:35:54.726Z,10.17
2019-05-02T05:37:54.463Z,10.20
2019-05-02T05:39:54.300Z,10.21
2019-05-02T05:40:54.223Z,10.17
2019-05-02T05:43:54.180Z,10.24
2019-05-02T05:44:53.816Z,10.20
2019-05-02T05:46:01.319Z,10.20
2019-05-02T05:46:53.770Z,10.21
2019-05-02T05:48:53.748Z,10.14
2019-05-02T05:49:57.650Z,10.20
2019-05-02T05:50:53.986Z,10.17
2019-05-02T05:51:54.434Z,10.27
2019-05-02T05:52:53.661Z,10.34
2019-05-02T05:53:58.983Z,10.18
2019-05-02T05:54:53.609Z,10.17
2019-05-02T05:55:58.349Z,10.23
2019-05-02T05:56:53.967Z,10.24
2019-05-02T05:57:59.607Z,10.26
2019-05-02T05:58:53.525Z,10.21
2019-05-02T05:59:53.507Z,10.20
2019-05-02T06:00:55.623Z,10.23
2019-05-02T06:01:53.470Z,10.31
2019-05-02T06:02:56.547Z,10.20
2019-05-02T06:03:53.424Z,10.18
2019-05-02T06:04:55.215Z,10.24
2019-05-02T06:05:53.410Z,10.26
2019-05-02T06:06:54.077Z,10.23
2019-05-02T06:07:53.423Z,10.24
2019-05-02T06:09:53.294Z,10.26
2019-05-02T06:10:53.563Z,10.23
2019-05-02T06:11:55.420Z,10.21
2019-05-02T06:12:53.378Z,10.34
2019-05-02T06:13:53.216Z,10.36
2019-05-02T06:14:56.408Z,10.31
2019-05-02T06:16:02.156Z,10.39
2019-05-02T06:16:53.321Z,10.35
2019-05-02T06:17:53.401Z,10.30
2019-05-02T06:18:53.108Z,10.36
2019-05-02T06:19:55.310Z,10.35
2019-05-02T06:20:53.076Z,10.34
2019-05-02T06:21:53.055Z,10.36
2019-05-02T06:22:55.030Z,10.39
2019-05-02T06:23:53.025Z,10.31
2019-05-02T06:24:52.988Z,10.34
2019-05-02T06:25:53.013Z,10.39
2019-05-02T06:26:52.943Z,10.43
2019-05-02T06:28:53.211Z,10.31
2019-05-02T06:29:56.178Z,10.39
2019-05-02T06:30:52.981Z,10.30
2019-05-02T06:31:52.963Z,10.38
2019-05-02T06:33:52.921Z,10.35
2019-05-02T06:34:53.277Z,10.35
2019-05-02T06:37:52.720Z,10.36
2019-05-02T06:38:56.560Z,10.41
2019-05-02T06:39:52.725Z,10.38
2019-05-02T06:40:52.961Z,10.35
2019-05-02T06:41:57.511Z,10.34
2019-05-02T06:42:52.631Z,10.35
2019-05-02T06:43:52.885Z,10.34
2019-05-02T06:45:52.545Z,10.34
2019-05-02T06:46:52.547Z,10.36
2019-05-02T06:47:52.762Z,10.27
2019-05-02T06:48:53.671Z,10.31
2019-05-02T06:49:56.085Z,10.45
2019-05-02T06:51:56.256Z,10.49
2019-05-02T06:52:52.403Z,10.49
2019-05-02T06:53:52.399Z,10.58
2019-05-02T06:54:54.109Z,10.61
2019-05-02T06:55:52.347Z,10.57
2019-05-02T06:56:52.338Z,10.58
2019-05-02T06:57:57.118Z,10.61
2019-05-02T06:58:52.312Z,10.62
2019-05-02T06:59:54.651Z,10.61
2019-05-02T07:00:58.152Z,10.65
2019-05-02T07:01:56.912Z,10.65
2019-05-02T07:02:52.220Z,10.64
2019-05-02T07:04:54.801Z,10.79
2019-05-02T07:05:52.355Z,10.73
2019-05-02T07:06:58.780Z,10.75
2019-05-02T07:07:52.637Z,10.76
2019-05-02T07:08:52.121Z,10.70
2019-05-02T07:09:52.071Z,10.80
2019-05-02T07:10:55.950Z,10.85
2019-05-02T07:11:57.323Z,10.79
2019-05-02T07:13:02.237Z,10.82
2019-05-02T07:13:52.017Z,10.73
2019-05-02T07:14:56.095Z,10.78
2019-05-02T07:16:54.422Z,10.83
2019-05-02T07:17:51.928Z,10.78
2019-05-02T07:19:51.896Z,10.76
2019-05-02T07:21:53.123Z,10.78
2019-05-02T07:22:51.815Z,10.83
2019-05-02T07:23:53.747Z,10.82
2019-05-02T07:24:51.769Z,10.79
2019-05-02T07:25:51.772Z,10.83
2019-05-02T07:26:52.102Z,11.00
2019-05-02T07:28:52.007Z,10.87
2019-05-02T07:29:52.197Z,10.90
2019-05-02T07:30:54.480Z,10.93
2019-05-02T07:31:53.523Z,10.91
2019-05-02T07:32:51.630Z,10.90
2019-05-02T07:33:51.828Z,11.01
2019-05-02T07:34:51.940Z,11.01
2019-05-02T07:35:55.278Z,11.03
2019-05-02T07:36:52.626Z,11.08
2019-05-02T07:37:52.019Z,10.95
2019-05-02T07:38:51.524Z,10.97
2019-05-02T07:39:51.487Z,10.98
2019-05-02T07:40:53.114Z,11.09
2019-05-02T07:41:51.465Z,11.04
2019-05-02T07:42:51.421Z,11.15
2019-05-02T07:43:52.122Z,11.27
2019-05-02T07:44:51.438Z,11.15
2019-05-02T07:45:51.366Z,11.28
2019-05-02T07:46:52.369Z,11.36
2019-05-02T07:47:51.362Z,11.40
2019-05-02T07:48:54.506Z,11.43
2019-05-02T07:49:51.709Z,11.45
2019-05-02T07:50:51.607Z,11.54
2019-05-02T07:53:51.216Z,11.30
2019-05-02T07:54:51.392Z,11.22
2019-05-02T07:55:51.179Z,11.34
2019-05-02T07:56:53.345Z,11.45
2019-05-02T07:57:51.134Z,11.45
2019-05-02T07:58:51.413Z,11.38
2019-05-02T08:00:51.077Z,11.46
2019-05-02T08:01:51.075Z,11.48
2019-05-02T08:02:51.236Z,11.30
2019-05-02T08:03:51.015Z,11.27
2019-05-02T08:04:52.585Z,11.38
2019-05-02T08:05:54.484Z,11.37
2019-05-02T08:06:50.962Z,11.37
2019-05-02T08:07:53.417Z,11.22
2019-05-02T08:08:51.127Z,11.27
2019-05-02T08:09:51.505Z,11.27
2019-05-02T08:10:53.349Z,11.23
2019-05-02T08:11:50.862Z,11.36
2019-05-02T08:12:51.311Z,11.20
2019-05-02T08:13:55.641Z,11.23
2019-05-02T08:14:51.097Z,11.23
2019-05-02T08:15:52.378Z,11.18
2019-05-02T08:17:53.697Z,11.15
2019-05-02T08:18:50.999Z,11.13
2019-05-02T08:19:50.857Z,11.16
2019-05-02T08:20:55.467Z,11.18
2019-05-02T08:22:50.835Z,11.09
2019-05-02T08:24:51.915Z,11.05
2019-05-02T08:25:50.702Z,11.01
2019-05-02T08:26:53.529Z,10.93
2019-05-02T08:27:50.555Z,10.93
2019-05-02T08:28:51.973Z,10.91
2019-05-02T08:29:51.298Z,10.98
2019-05-02T08:30:50.865Z,10.97
2019-05-02T08:31:54.038Z,10.95
2019-05-02T08:32:50.508Z,11.00
2019-05-02T08:33:50.445Z,10.90
2019-05-02T08:34:51.970Z,10.86
2019-05-02T08:35:50.596Z,10.91
2019-05-02T08:36:50.392Z,10.95
2019-05-02T08:37:50.724Z,10.83
2019-05-02T08:38:53.583Z,10.75
2019-05-02T08:39:52.319Z,10.78
2019-05-02T08:40:51.356Z,10.76
2019-05-02T08:41:56.254Z,10.72
2019-05-02T08:42:50.736Z,10.76
2019-05-02T08:43:50.375Z,10.76
2019-05-02T08:44:51.614Z,10.78
2019-05-02T08:45:50.713Z,10.72
2019-05-02T08:46:51.354Z,10.78
2019-05-02T08:47:50.208Z,10.90
2019-05-02T08:48:50.764Z,10.82
2019-05-02T08:49:54.898Z,10.87
2019-05-02T08:50:50.136Z,10.94
2019-05-02T08:51:50.275Z,10.90
2019-05-02T08:52:50.380Z,10.90
2019-05-02T08:53:52.013Z,10.86
2019-05-02T08:54:50.107Z,10.97
2019-05-02T08:55:50.073Z,10.91
2019-05-02T08:56:53.452Z,10.94
2019-05-02T08:57:50.002Z,10.86
2019-05-02T08:58:51.114Z,10.85
2019-05-02T08:59:50.084Z,10.82
2019-05-02T09:00:49.995Z,10.79
2019-05-02T09:01:51.375Z,10.82
2019-05-02T09:02:49.911Z,10.73
2019-05-02T09:03:55.332Z,10.78
2019-05-02T09:04:58.183Z,10.79
2019-05-02T09:06:53.118Z,10.83
2019-05-02T09:07:49.788Z,10.85
2019-05-02T09:09:49.868Z,10.85
2019-05-02T09:10:50.055Z,10.70
2019-05-02T09:12:03.307Z,10.80
2019-05-02T09:12:52.091Z,10.82
2019-05-02T09:13:50.211Z,10.72
2019-05-02T09:14:49.655Z,10.75
2019-05-02T09:15:52.009Z,10.76
2019-05-02T09:16:49.633Z,10.79
2019-05-02T09:17:53.036Z,10.78
2019-05-02T09:18:51.812Z,10.78
2019-05-02T09:20:00.288Z,10.86
2019-05-02T09:20:52.637Z,10.75
2019-05-02T09:23:51.710Z,10.70
2019-05-02T09:24:49.503Z,10.80
2019-05-02T09:25:49.435Z,10.79
2019-05-02T09:26:49.475Z,10.93
2019-05-02T09:27:49.914Z,10.83
2019-05-02T09:28:51.674Z,10.86
2019-05-02T09:29:49.373Z,10.91
2019-05-02T09:30:49.359Z,10.76
2019-05-02T09:31:49.337Z,10.87
2019-05-02T09:32:52.219Z,10.82
2019-05-02T09:33:49.283Z,10.94
2019-05-02T09:35:49.364Z,10.86
2019-05-02T09:36:49.501Z,10.97
2019-05-02T09:37:49.397Z,10.90
2019-05-02T09:39:49.324Z,10.87
2019-05-02T09:40:54.590Z,10.90
2019-05-02T09:41:49.407Z,10.97
2019-05-02T09:42:53.271Z,10.98
2019-05-02T09:44:55.396Z,10.91
2019-05-02T09:45:49.059Z,10.97
2019-05-02T09:46:53.100Z,10.97
2019-05-02T09:47:59.707Z,11.01
2019-05-02T09:48:48.979Z,11.09
2019-05-02T09:49:50.441Z,11.08
2019-05-02T09:50:48.928Z,11.12
2019-05-02T09:52:48.885Z,11.08
2019-05-02T09:53:48.947Z,11.15
2019-05-02T09:54:49.182Z,11.09
2019-05-02T09:55:55.012Z,11.15
2019-05-02T09:56:52.363Z,11.20
2019-05-02T09:57:48.783Z,11.15
2019-05-02T09:58:49.379Z,11.25
2019-05-02T09:59:50.643Z,11.23
2019-05-02T10:00:48.806Z,11.30
2019-05-02T10:01:48.957Z,11.36
2019-05-02T10:02:48.760Z,11.33
2019-05-02T10:03:48.699Z,11.30
2019-05-02T10:04:48.747Z,11.34
2019-05-02T10:05:48.740Z,11.38
2019-05-02T10:06:48.778Z,11.33
2019-05-02T10:07:48.779Z,11.43
2019-05-02T10:08:49.012Z,11.38
2019-05-02T10:09:48.560Z,11.38
2019-05-02T10:10:48.612Z,11.49
2019-05-02T10:11:48.550Z,11.45
2019-05-02T10:12:48.508Z,11.40
2019-05-02T10:13:48.677Z,11.43
2019-05-02T10:14:48.487Z,11.49
2019-05-02T10:15:48.927Z,11.51
2019-05-02T10:18:48.538Z,11.58
2019-05-02T10:19:49.244Z,11.59
2019-05-02T10:20:48.361Z,11.58
2019-05-02T10:22:48.633Z,11.56
2019-05-02T10:23:51.760Z,11.55
2019-05-02T10:24:48.269Z,11.67
2019-05-02T10:25:48.664Z,11.59
2019-05-02T10:26:48.392Z,11.64
2019-05-02T10:27:48.215Z,11.82
2019-05-02T10:28:50.534Z,11.80
2019-05-02T10:29:48.213Z,11.71
2019-05-02T10:30:52.750Z,11.64
2019-05-02T10:31:48.144Z,11.76
2019-05-02T10:32:55.560Z,11.76
2019-05-02T10:33:48.150Z,11.76
2019-05-02T10:34:53.130Z,11.69
2019-05-02T10:35:48.302Z,11.91
2019-05-02T10:36:51.943Z,11.93
2019-05-02T10:37:48.106Z,11.99
2019-05-02T10:38:48.976Z,12.00
2019-05-02T10:39:48.094Z,12.04
2019-05-02T10:40:48.485Z,12.00
2019-05-02T10:41:48.108Z,12.03
2019-05-02T10:43:52.022Z,11.93
2019-05-02T10:44:47.894Z,12.03
2019-05-02T10:45:52.888Z,12.03
2019-05-02T10:46:48.291Z,12.05
2019-05-02T10:47:47.855Z,12.03
2019-05-02T10:48:47.835Z,12.14
2019-05-02T10:49:47.961Z,12.07
2019-05-02T10:50:47.807Z,12.18
2019-05-02T10:51:51.046Z,12.28
2019-05-02T10:52:48.132Z,12.25
2019-05-02T10:53:54.777Z,12.35
2019-05-02T10:54:53.175Z,12.28
2019-05-02T11:00:47.617Z,12.46
2019-05-02T11:01:47.651Z,12.33
2019-05-02T11:02:47.562Z,12.41
2019-05-02T11:03:47.663Z,12.47
2019-05-02T11:04:47.565Z,12.53
2019-05-02T11:05:47.849Z,12.55
2019-05-02T11:06:47.784Z,12.55
2019-05-02T11:07:47.483Z,12.53
2019-05-02T11:08:47.556Z,12.76
2019-05-02T11:09:47.753Z,12.77
2019-05-02T11:10:47.953Z,12.80
2019-05-02T11:11:47.802Z,12.88
2019-05-02T11:12:47.665Z,12.88
2019-05-02T11:13:48.157Z,12.98
2019-05-02T11:14:47.532Z,13.01
2019-05-02T11:15:47.420Z,13.13
2019-05-02T11:16:47.361Z,13.43
2019-05-02T11:17:48.380Z,13.45
2019-05-02T11:20:47.316Z,13.64
2019-05-02T11:21:56.422Z,13.64
2019-05-02T11:25:47.140Z,14.00
2019-05-02T11:26:47.519Z,13.97
2019-05-02T11:28:47.565Z,13.96
2019-05-02T11:29:47.190Z,13.96
2019-05-02T11:30:47.405Z,14.09
2019-05-02T11:31:47.049Z,14.34
2019-05-02T11:32:47.047Z,14.36
2019-05-02T11:33:47.277Z,14.18
2019-05-02T11:34:47.010Z,13.75
2019-05-02T11:46:01.533Z,13.73
2019-05-02T11:46:47.173Z,14.01
2019-05-02T11:47:47.002Z,14.16
2019-05-02T11:48:56.357Z,14.04
2019-05-02T11:49:51.297Z,14.04
2019-05-02T11:50:46.763Z,13.96
2019-05-02T11:52:47.055Z,14.05
2019-05-02T11:53:46.711Z,14.19
2019-05-02T11:54:48.433Z,14.33
2019-05-02T11:55:46.698Z,14.23
2019-05-02T11:56:51.335Z,14.23
2019-05-02T11:57:46.712Z,14.22
2019-05-02T11:58:48.405Z,14.26
2019-05-02T12:00:49.663Z,14.55
2019-05-02T12:02:49.136Z,14.61
2019-05-02T12:03:46.650Z,14.53
2019-05-02T12:04:47.395Z,14.56
2019-05-02T12:05:46.544Z,14.59
2019-05-02T12:06:50.071Z,14.61
2019-05-02T12:08:49.420Z,14.90
2019-05-02T12:09:55.452Z,14.97
2019-05-02T12:11:47.434Z,15.05
2019-05-02T12:12:46.431Z,15.08
2019-05-02T12:14:46.442Z,14.71
2019-05-02T12:15:46.419Z,14.73
2019-05-02T12:17:46.324Z,14.53
2019-05-02T12:18:46.344Z,14.51
2019-05-02T12:19:46.309Z,14.46
2019-05-02T12:20:46.388Z,14.27
2019-05-02T12:21:46.267Z,14.21
2019-05-02T12:22:47.096Z,14.23
2019-05-02T12:23:47.932Z,14.12
2019-05-02T12:24:48.560Z,14.09
2019-05-02T12:25:46.269Z,14.18
2019-05-02T12:26:46.618Z,14.30
2019-05-02T12:27:46.256Z,14.34
2019-05-02T12:28:46.486Z,14.51
2019-05-02T12:29:50.159Z,14.63
2019-05-02T12:30:46.140Z,15.10
2019-05-02T12:31:47.179Z,15.44
2019-05-02T12:32:46.457Z,15.83
2019-05-02T12:33:46.129Z,16.00
2019-05-02T12:34:46.179Z,16.69
2019-05-02T12:36:46.109Z,16.39
2019-05-02T12:37:47.016Z,15.87
2019-05-02T12:39:45.995Z,15.43
2019-05-02T12:40:46.099Z,15.50
2019-05-02T12:41:46.339Z,15.40
2019-05-02T12:42:46.535Z,15.27
2019-05-02T12:43:46.135Z,15.05
2019-05-02T12:44:46.097Z,15.01
2019-05-02T12:46:45.948Z,15.01
2019-05-02T12:47:45.881Z,15.01
2019-05-02T12:48:46.166Z,15.19
2019-05-02T12:49:45.945Z,15.66
2019-05-02T12:50:45.971Z,16.29
2019-05-02T12:51:45.847Z,16.62
2019-05-02T12:52:45.817Z,16.61
2019-05-02T12:53:45.799Z,15.95
2019-05-02T12:54:45.811Z,15.98
2019-05-02T12:55:46.323Z,16.22
2019-05-02T12:56:45.916Z,16.17
2019-05-02T12:58:45.731Z,16.16
2019-05-02T12:59:45.999Z,15.98
2019-05-02T13:01:46.003Z,15.65
2019-05-02T13:02:45.678Z,15.73
2019-05-02T13:03:45.659Z,15.63
2019-05-02T13:04:45.736Z,15.33
2019-05-02T13:06:46.748Z,15.08
2019-05-02T13:07:50.414Z,15.19
2019-05-02T13:08:45.653Z,15.23
2019-05-02T13:09:45.595Z,15.44
2019-05-02T13:11:52.369Z,15.84
2019-05-02T13:12:45.659Z,15.83
2019-05-02T13:15:45.954Z,15.93
2019-05-02T13:16:45.766Z,16.05
2019-05-02T13:17:48.809Z,16.21
2019-05-02T13:18:46.805Z,16.17
2019-05-02T13:20:45.659Z,16.39
2019-05-02T13:21:50.244Z,16.43
2019-05-02T13:22:45.792Z,16.43
2019-05-02T13:23:46.780Z,16.42
2019-05-02T13:25:45.405Z,15.69
2019-05-02T13:26:45.332Z,15.73
2019-05-02T13:27:48.113Z,15.68
2019-05-02T13:28:46.226Z,15.68
2019-05-02T13:29:45.612Z,15.44
2019-05-02T13:30:46.689Z,15.45
2019-05-02T13:31:45.268Z,15.43
2019-05-02T13:32:48.198Z,15.26
2019-05-02T13:33:45.254Z,15.30
2019-05-02T13:35:46.307Z,15.27
2019-05-02T13:36:45.444Z,15.25
2019-05-02T13:37:46.002Z,15.32
2019-05-02T13:38:45.168Z,15.33
2019-05-02T13:39:45.544Z,15.29
2019-05-02T13:41:45.138Z,15.38
2019-05-02T13:42:45.859Z,15.27
2019-05-02T13:43:45.316Z,15.33
2019-05-02T13:44:46.051Z,15.43
2019-05-02T13:46:46.487Z,15.43
2019-05-02T13:49:54.107Z,15.47
2019-05-02T13:50:45.370Z,15.26
2019-05-02T13:51:45.087Z,15.25
2019-05-02T13:52:53.258Z,15.20
2019-05-02T13:54:44.938Z,15.05
2019-05-02T13:55:45.602Z,15.01
2019-05-02T13:56:45.175Z,14.92
2019-05-02T13:57:46.903Z,15.07
2019-05-02T13:58:45.184Z,15.04
2019-05-02T13:59:45.078Z,15.01
2019-05-02T14:00:44.826Z,14.95
2019-05-02T14:01:44.815Z,14.83
2019-05-02T14:03:44.853Z,14.73
2019-05-02T14:04:45.315Z,14.64
2019-05-02T14:05:49.287Z,14.58
2019-05-02T14:06:44.736Z,14.64
2019-05-02T14:07:48.198Z,14.59
2019-05-02T14:08:44.758Z,14.55
2019-05-02T14:09:44.678Z,14.51
2019-05-02T14:11:44.754Z,14.44
2019-05-02T14:12:44.942Z,14.69
2019-05-02T14:13:44.637Z,14.63
2019-05-02T14:14:44.707Z,14.77
2019-05-02T14:15:44.580Z,14.77
2019-05-02T14:16:44.586Z,14.71
2019-05-02T14:17:44.836Z,14.58
2019-05-02T14:18:44.524Z,14.63
2019-05-02T14:19:44.833Z,14.58
2019-05-02T14:22:44.757Z,14.56
2019-05-02T14:24:17.143Z,14.48
2019-05-02T14:25:46.860Z,14.59
2019-05-02T14:28:44.413Z,14.59
2019-05-02T14:29:44.495Z,14.58
2019-05-02T14:30:46.362Z,14.55
2019-05-02T14:31:44.334Z,14.58
2019-05-02T14:32:44.619Z,14.56
2019-05-02T14:33:44.309Z,14.49
2019-05-02T14:34:44.298Z,14.38
2019-05-02T14:35:44.619Z,14.51
2019-05-02T14:38:44.276Z,14.56
2019-05-02T14:39:44.714Z,14.59
2019-05-02T14:40:44.184Z,14.58
2019-05-02T14:41:44.618Z,14.44
2019-05-02T14:42:44.325Z,14.49
2019-05-02T14:43:46.858Z,14.48
2019-05-02T14:45:04.193Z,14.53
2019-05-02T14:45:44.142Z,14.44
2019-05-02T14:46:44.195Z,14.53
2019-05-02T14:47:44.068Z,14.49
2019-05-02T14:48:45.308Z,14.51
2019-05-02T14:49:44.080Z,14.40
2019-05-02T14:50:45.698Z,14.45
2019-05-02T14:51:44.299Z,14.40
2019-05-02T14:52:45.784Z,14.36
2019-05-02T14:53:43.953Z,14.33
2019-05-02T14:54:47.921Z,14.52